sensor_id;sensor_type;location;lat;lon;timestamp;temperature;humidity
16074;DHT22;8141;52.664;5.074;2023-06-22T00:02:16;28.30;57.40
16074;DHT22;8141;52.664;5.074;2023-06-22T00:04:42;28.40;57.40
16074;DHT22;8141;52.664;5.074;2023-06-22T00:07:08;28.30;57.40
16074;DHT22;8141;52.664;5.074;2023-06-22T00:09:34;28.30;57.40
16074;DHT22;8141;52.664;5.074;2023-06-22T00:12:00;28.30;57.40
16074;DHT22;8141;52.664;5.074;2023-06-22T00:14:26;28.30;57.40
16074;DHT22;8141;52.664;5.074;2023-06-22T00:16:52;28.30;57.70
16074;DHT22;8141;52.664;5.074;2023-06-22T00:19:23;28.30;57.70
16074;DHT22;8141;52.664;5.074;2023-06-22T00:21:50;28.40;57.80
16074;DHT22;8141;52.664;5.074;2023-06-22T00:24:19;28.30;57.70
16074;DHT22;8141;52.664;5.074;2023-06-22T00:26:45;28.30;57.70
16074;DHT22;8141;52.664;5.074;2023-06-22T00:29:12;28.30;57.70
16074;DHT22;8141;52.664;5.074;2023-06-22T00:31:38;28.30;57.80
16074;DHT22;8141;52.664;5.074;2023-06-22T00:34:04;28.30;57.90
16074;DHT22;8141;52.664;5.074;2023-06-22T00:36:32;28.40;58.00
16074;DHT22;8141;52.664;5.074;2023-06-22T00:38:57;28.30;58.00
16074;DHT22;8141;52.664;5.074;2023-06-22T00:41:23;28.30;57.90
16074;DHT22;8141;52.664;5.074;2023-06-22T00:43:49;28.30;57.90
16074;DHT22;8141;52.664;5.074;2023-06-22T00:46:15;28.30;57.90
16074;DHT22;8141;52.664;5.074;2023-06-22T00:48:40;28.30;57.90
16074;DHT22;8141;52.664;5.074;2023-06-22T00:51:10;28.30;57.90
16074;DHT22;8141;52.664;5.074;2023-06-22T00:53:36;28.30;58.10
16074;DHT22;8141;52.664;5.074;2023-06-22T00:56:02;28.30;58.10
16074;DHT22;8141;52.664;5.074;2023-06-22T00:58:29;28.30;58.00
16074;DHT22;8141;52.664;5.074;2023-06-22T01:00:55;28.30;58.20
16074;DHT22;8141;52.664;5.074;2023-06-22T01:03:22;28.30;58.20
16074;DHT22;8141;52.664;5.074;2023-06-22T01:05:48;28.30;58.20
16074;DHT22;8141;52.664;5.074;2023-06-22T01:11:08;28.30;58.20
16074;DHT22;8141;52.664;5.074;2023-06-22T01:13:45;28.30;58.40
16074;DHT22;8141;52.664;5.074;2023-06-22T01:16:24;28.30;58.40
16074;DHT22;8141;52.664;5.074;2023-06-22T01:18:55;28.20;58.40
16074;DHT22;8141;52.664;5.074;2023-06-22T01:21:27;28.30;58.50
16074;DHT22;8141;52.664;5.074;2023-06-22T01:26:54;28.30;58.50
16074;DHT22;8141;52.664;5.074;2023-06-22T01:29:29;28.30;58.30
16074;DHT22;8141;52.664;5.074;2023-06-22T01:31:57;28.30;58.40
16074;DHT22;8141;52.664;5.074;2023-06-22T01:34:24;28.30;58.40
16074;DHT22;8141;52.664;5.074;2023-06-22T01:36:51;28.30;58.50
16074;DHT22;8141;52.664;5.074;2023-06-22T01:39:18;28.30;58.50
16074;DHT22;8141;52.664;5.074;2023-06-22T01:41:45;28.30;58.40
16074;DHT22;8141;52.664;5.074;2023-06-22T01:44:15;28.30;58.40
16074;DHT22;8141;52.664;5.074;2023-06-22T01:46:41;28.30;58.40
16074;DHT22;8141;52.664;5.074;2023-06-22T01:49:08;28.30;58.50
16074;DHT22;8141;52.664;5.074;2023-06-22T01:51:34;28.30;58.50
16074;DHT22;8141;52.664;5.074;2023-06-22T01:54:01;28.30;58.50
16074;DHT22;8141;52.664;5.074;2023-06-22T01:56:27;28.30;58.40
16074;DHT22;8141;52.664;5.074;2023-06-22T01:59:12;28.30;58.40
16074;DHT22;8141;52.664;5.074;2023-06-22T02:02:11;28.30;58.50
16074;DHT22;8141;52.664;5.074;2023-06-22T02:04:46;28.30;58.50
16074;DHT22;8141;52.664;5.074;2023-06-22T02:07:16;28.30;58.50
16074;DHT22;8141;52.664;5.074;2023-06-22T02:09:45;28.30;58.50
16074;DHT22;8141;52.664;5.074;2023-06-22T02:12:14;28.30;58.60
16074;DHT22;8141;52.664;5.074;2023-06-22T02:14:44;28.30;58.60
16074;DHT22;8141;52.664;5.074;2023-06-22T02:17:12;28.30;58.70
16074;DHT22;8141;52.664;5.074;2023-06-22T02:19:41;28.30;58.70
16074;DHT22;8141;52.664;5.074;2023-06-22T02:22:07;28.30;58.70
16074;DHT22;8141;52.664;5.074;2023-06-22T02:24:33;28.30;58.70
16074;DHT22;8141;52.664;5.074;2023-06-22T02:26:59;28.20;58.70
16074;DHT22;8141;52.664;5.074;2023-06-22T02:29:26;28.30;58.80
16074;DHT22;8141;52.664;5.074;2023-06-22T02:31:53;28.30;58.70
16074;DHT22;8141;52.664;5.074;2023-06-22T02:34:19;28.30;58.60
16074;DHT22;8141;52.664;5.074;2023-06-22T02:36:46;28.20;58.60
16074;DHT22;8141;52.664;5.074;2023-06-22T02:39:21;28.30;58.70
16074;DHT22;8141;52.664;5.074;2023-06-22T02:41:52;28.20;58.70
16074;DHT22;8141;52.664;5.074;2023-06-22T02:44:19;28.20;58.60
16074;DHT22;8141;52.664;5.074;2023-06-22T02:46:46;28.20;58.60
16074;DHT22;8141;52.664;5.074;2023-06-22T02:49:13;28.30;58.60
16074;DHT22;8141;52.664;5.074;2023-06-22T02:51:45;28.20;58.50
16074;DHT22;8141;52.664;5.074;2023-06-22T02:54:12;28.30;58.60
16074;DHT22;8141;52.664;5.074;2023-06-22T02:56:37;28.20;58.40
16074;DHT22;8141;52.664;5.074;2023-06-22T02:59:03;28.30;58.30
16074;DHT22;8141;52.664;5.074;2023-06-22T03:01:29;28.20;58.30
16074;DHT22;8141;52.664;5.074;2023-06-22T03:04:03;28.20;58.40
16074;DHT22;8141;52.664;5.074;2023-06-22T03:06:30;28.20;58.30
16074;DHT22;8141;52.664;5.074;2023-06-22T03:09:04;28.20;58.30
16074;DHT22;8141;52.664;5.074;2023-06-22T03:11:31;28.20;58.30
16074;DHT22;8141;52.664;5.074;2023-06-22T03:13:58;28.20;58.90
16074;DHT22;8141;52.664;5.074;2023-06-22T03:16:24;28.20;58.30
16074;DHT22;8141;52.664;5.074;2023-06-22T03:18:49;28.20;58.20
16074;DHT22;8141;52.664;5.074;2023-06-22T03:21:15;28.20;58.30
16074;DHT22;8141;52.664;5.074;2023-06-22T03:23:42;28.20;58.20
16074;DHT22;8141;52.664;5.074;2023-06-22T03:26:09;28.20;58.20
16074;DHT22;8141;52.664;5.074;2023-06-22T03:28:36;28.20;58.10
16074;DHT22;8141;52.664;5.074;2023-06-22T03:31:03;28.20;58.30
16074;DHT22;8141;52.664;5.074;2023-06-22T03:37:01;28.20;58.50
16074;DHT22;8141;52.664;5.074;2023-06-22T03:39:27;28.20;58.60
16074;DHT22;8141;52.664;5.074;2023-06-22T03:41:52;28.20;58.80
16074;DHT22;8141;52.664;5.074;2023-06-22T03:44:18;28.20;58.30
16074;DHT22;8141;52.664;5.074;2023-06-22T03:46:44;28.10;58.20
16074;DHT22;8141;52.664;5.074;2023-06-22T03:49:09;28.20;58.10
16074;DHT22;8141;52.664;5.074;2023-06-22T03:51:35;28.10;57.90
16074;DHT22;8141;52.664;5.074;2023-06-22T03:54:01;28.10;57.80
16074;DHT22;8141;52.664;5.074;2023-06-22T03:56:28;28.10;57.80
16074;DHT22;8141;52.664;5.074;2023-06-22T03:58:55;28.10;57.80
16074;DHT22;8141;52.664;5.074;2023-06-22T04:01:21;28.10;57.70
16074;DHT22;8141;52.664;5.074;2023-06-22T04:03:47;28.10;57.60
16074;DHT22;8141;52.664;5.074;2023-06-22T04:06:15;28.00;57.50
16074;DHT22;8141;52.664;5.074;2023-06-22T04:08:40;28.00;57.40
16074;DHT22;8141;52.664;5.074;2023-06-22T04:11:08;28.00;57.40
16074;DHT22;8141;52.664;5.074;2023-06-22T04:13:33;28.00;57.80
16074;DHT22;8141;52.664;5.074;2023-06-22T04:15:59;28.00;57.20
16074;DHT22;8141;52.664;5.074;2023-06-22T04:18:26;28.00;57.30
16074;DHT22;8141;52.664;5.074;2023-06-22T04:20:52;28.00;57.20
16074;DHT22;8141;52.664;5.074;2023-06-22T04:23:19;28.00;57.20
16074;DHT22;8141;52.664;5.074;2023-06-22T04:25:46;28.00;57.30
16074;DHT22;8141;52.664;5.074;2023-06-22T04:28:11;28.00;57.20
16074;DHT22;8141;52.664;5.074;2023-06-22T04:30:38;28.00;57.20
16074;DHT22;8141;52.664;5.074;2023-06-22T04:33:12;28.00;57.20
16074;DHT22;8141;52.664;5.074;2023-06-22T04:35:39;27.90;57.00
16074;DHT22;8141;52.664;5.074;2023-06-22T04:38:07;27.90;57.20
16074;DHT22;8141;52.664;5.074;2023-06-22T04:40:33;27.90;57.00
16074;DHT22;8141;52.664;5.074;2023-06-22T04:42:59;27.90;57.10
16074;DHT22;8141;52.664;5.074;2023-06-22T04:45:28;27.90;57.10
16074;DHT22;8141;52.664;5.074;2023-06-22T04:47:57;27.90;57.10
16074;DHT22;8141;52.664;5.074;2023-06-22T04:50:22;27.90;57.20
16074;DHT22;8141;52.664;5.074;2023-06-22T04:52:50;27.90;57.10
16074;DHT22;8141;52.664;5.074;2023-06-22T04:55:17;27.90;57.10
16074;DHT22;8141;52.664;5.074;2023-06-22T04:57:48;27.90;57.10
16074;DHT22;8141;52.664;5.074;2023-06-22T05:00:18;27.90;57.10
16074;DHT22;8141;52.664;5.074;2023-06-22T05:02:46;27.90;57.20
16074;DHT22;8141;52.664;5.074;2023-06-22T05:05:13;27.90;57.20
16074;DHT22;8141;52.664;5.074;2023-06-22T05:07:43;27.80;57.20
16074;DHT22;8141;52.664;5.074;2023-06-22T05:10:11;27.90;57.40
16074;DHT22;8141;52.664;5.074;2023-06-22T05:12:38;27.90;57.40
16074;DHT22;8141;52.664;5.074;2023-06-22T05:15:07;27.90;57.40
16074;DHT22;8141;52.664;5.074;2023-06-22T05:17:33;27.80;57.30
16074;DHT22;8141;52.664;5.074;2023-06-22T05:19:59;27.80;57.40
16074;DHT22;8141;52.664;5.074;2023-06-22T05:22:27;27.80;57.30
16074;DHT22;8141;52.664;5.074;2023-06-22T05:24:52;27.90;57.40
16074;DHT22;8141;52.664;5.074;2023-06-22T05:27:19;27.80;57.30
16074;DHT22;8141;52.664;5.074;2023-06-22T05:29:45;27.90;57.40
16074;DHT22;8141;52.664;5.074;2023-06-22T05:32:11;27.80;57.30
16074;DHT22;8141;52.664;5.074;2023-06-22T05:34:37;27.80;57.30
16074;DHT22;8141;52.664;5.074;2023-06-22T05:37:05;27.80;57.40
16074;DHT22;8141;52.664;5.074;2023-06-22T05:39:32;27.80;57.40
16074;DHT22;8141;52.664;5.074;2023-06-22T05:41:58;27.80;57.30
16074;DHT22;8141;52.664;5.074;2023-06-22T05:44:24;27.80;57.30
16074;DHT22;8141;52.664;5.074;2023-06-22T05:46:50;27.80;57.20
16074;DHT22;8141;52.664;5.074;2023-06-22T05:49:16;27.80;57.30
16074;DHT22;8141;52.664;5.074;2023-06-22T05:51:42;27.80;57.30
16074;DHT22;8141;52.664;5.074;2023-06-22T05:54:08;27.80;57.20
16074;DHT22;8141;52.664;5.074;2023-06-22T05:56:35;27.80;57.30
16074;DHT22;8141;52.664;5.074;2023-06-22T05:59:03;27.80;57.20
16074;DHT22;8141;52.664;5.074;2023-06-22T06:01:29;27.80;57.20
16074;DHT22;8141;52.664;5.074;2023-06-22T06:04:00;27.80;57.20
16074;DHT22;8141;52.664;5.074;2023-06-22T06:06:25;27.80;57.20
16074;DHT22;8141;52.664;5.074;2023-06-22T06:08:54;27.80;57.20
16074;DHT22;8141;52.664;5.074;2023-06-22T06:11:20;27.80;57.20
16074;DHT22;8141;52.664;5.074;2023-06-22T06:13:46;27.80;57.20
16074;DHT22;8141;52.664;5.074;2023-06-22T06:16:12;27.80;57.20
16074;DHT22;8141;52.664;5.074;2023-06-22T06:18:38;27.80;57.20
16074;DHT22;8141;52.664;5.074;2023-06-22T06:21:03;27.80;57.80
16074;DHT22;8141;52.664;5.074;2023-06-22T06:23:30;27.80;57.20
16074;DHT22;8141;52.664;5.074;2023-06-22T06:25:56;27.80;57.20
16074;DHT22;8141;52.664;5.074;2023-06-22T06:28:24;27.80;57.20
16074;DHT22;8141;52.664;5.074;2023-06-22T06:30:50;27.80;57.20
16074;DHT22;8141;52.664;5.074;2023-06-22T06:33:17;27.80;57.20
16074;DHT22;8141;52.664;5.074;2023-06-22T06:35:43;27.80;57.20
16074;DHT22;8141;52.664;5.074;2023-06-22T06:38:08;27.80;57.10
16074;DHT22;8141;52.664;5.074;2023-06-22T06:40:34;27.70;57.00
16074;DHT22;8141;52.664;5.074;2023-06-22T06:43:00;27.70;57.10
16074;DHT22;8141;52.664;5.074;2023-06-22T06:45:25;27.80;57.10
16074;DHT22;8141;52.664;5.074;2023-06-22T06:47:53;27.80;57.10
16074;DHT22;8141;52.664;5.074;2023-06-22T06:50:19;27.80;57.10
16074;DHT22;8141;52.664;5.074;2023-06-22T06:52:45;27.70;57.00
16074;DHT22;8141;52.664;5.074;2023-06-22T06:55:11;27.70;57.00
16074;DHT22;8141;52.664;5.074;2023-06-22T06:57:38;27.70;57.00
16074;DHT22;8141;52.664;5.074;2023-06-22T07:00:09;27.70;57.00
16074;DHT22;8141;52.664;5.074;2023-06-22T07:02:39;27.70;56.90
16074;DHT22;8141;52.664;5.074;2023-06-22T07:05:07;27.70;57.70
16074;DHT22;8141;52.664;5.074;2023-06-22T07:07:33;27.70;58.60
16074;DHT22;8141;52.664;5.074;2023-06-22T07:09:59;27.60;59.30
16074;DHT22;8141;52.664;5.074;2023-06-22T07:12:25;27.40;59.70
16074;DHT22;8141;52.664;5.074;2023-06-22T07:14:52;27.30;59.70
16074;DHT22;8141;52.664;5.074;2023-06-22T07:17:20;27.20;60.30
16074;DHT22;8141;52.664;5.074;2023-06-22T07:19:45;27.10;60.40
16074;DHT22;8141;52.664;5.074;2023-06-22T07:22:11;27.10;60.40
16074;DHT22;8141;52.664;5.074;2023-06-22T07:24:37;27.00;60.70
16074;DHT22;8141;52.664;5.074;2023-06-22T07:27:04;27.00;60.40
16074;DHT22;8141;52.664;5.074;2023-06-22T07:29:32;26.90;60.50
16074;DHT22;8141;52.664;5.074;2023-06-22T07:31:58;26.90;60.60
16074;DHT22;8141;52.664;5.074;2023-06-22T07:34:26;27.00;60.70
16074;DHT22;8141;52.664;5.074;2023-06-22T07:36:51;26.90;60.40
16074;DHT22;8141;52.664;5.074;2023-06-22T07:39:17;26.90;60.70
16074;DHT22;8141;52.664;5.074;2023-06-22T07:41:43;26.90;60.60
16074;DHT22;8141;52.664;5.074;2023-06-22T07:44:10;27.00;60.50
16074;DHT22;8141;52.664;5.074;2023-06-22T07:46:35;27.00;60.70
16074;DHT22;8141;52.664;5.074;2023-06-22T07:49:02;26.90;60.90
16074;DHT22;8141;52.664;5.074;2023-06-22T07:51:28;27.00;60.70
16074;DHT22;8141;52.664;5.074;2023-06-22T07:53:53;27.00;60.50
16074;DHT22;8141;52.664;5.074;2023-06-22T07:56:20;27.00;60.20
16074;DHT22;8141;52.664;5.074;2023-06-22T07:58:47;27.00;60.00
16074;DHT22;8141;52.664;5.074;2023-06-22T08:01:13;26.90;59.90
16074;DHT22;8141;52.664;5.074;2023-06-22T08:03:39;26.90;60.10
16074;DHT22;8141;52.664;5.074;2023-06-22T08:06:05;26.80;60.20
16074;DHT22;8141;52.664;5.074;2023-06-22T08:08:34;26.90;60.60
16074;DHT22;8141;52.664;5.074;2023-06-22T08:11:00;27.00;60.10
16074;DHT22;8141;52.664;5.074;2023-06-22T08:13:26;27.00;59.80
16074;DHT22;8141;52.664;5.074;2023-06-22T08:15:52;27.10;59.80
16074;DHT22;8141;52.664;5.074;2023-06-22T08:18:18;27.10;59.60
16074;DHT22;8141;52.664;5.074;2023-06-22T08:20:44;27.20;59.50
16074;DHT22;8141;52.664;5.074;2023-06-22T08:23:09;27.10;59.80
16074;DHT22;8141;52.664;5.074;2023-06-22T08:25:36;27.10;59.90
16074;DHT22;8141;52.664;5.074;2023-06-22T08:28:03;27.10;59.60
16074;DHT22;8141;52.664;5.074;2023-06-22T08:30:29;27.10;59.60
16074;DHT22;8141;52.664;5.074;2023-06-22T08:32:55;27.10;59.60
16074;DHT22;8141;52.664;5.074;2023-06-22T08:35:24;27.20;59.40
16074;DHT22;8141;52.664;5.074;2023-06-22T08:37:51;27.20;59.10
16074;DHT22;8141;52.664;5.074;2023-06-22T08:40:20;27.30;59.10
16074;DHT22;8141;52.664;5.074;2023-06-22T08:42:47;27.30;59.20
16074;DHT22;8141;52.664;5.074;2023-06-22T08:45:13;27.30;59.10
16074;DHT22;8141;52.664;5.074;2023-06-22T08:47:40;27.30;59.10
16074;DHT22;8141;52.664;5.074;2023-06-22T08:50:10;27.30;59.20
16074;DHT22;8141;52.664;5.074;2023-06-22T08:52:38;27.30;59.10
16074;DHT22;8141;52.664;5.074;2023-06-22T08:55:09;27.30;59.10
16074;DHT22;8141;52.664;5.074;2023-06-22T08:57:36;27.30;59.10
16074;DHT22;8141;52.664;5.074;2023-06-22T09:00:06;27.40;59.10
16074;DHT22;8141;52.664;5.074;2023-06-22T09:02:43;27.30;59.00
16074;DHT22;8141;52.664;5.074;2023-06-22T09:05:10;27.20;59.30
16074;DHT22;8141;52.664;5.074;2023-06-22T09:07:36;27.10;59.40
16074;DHT22;8141;52.664;5.074;2023-06-22T09:10:03;27.10;59.60
16074;DHT22;8141;52.664;5.074;2023-06-22T09:12:31;27.20;59.60
16074;DHT22;8141;52.664;5.074;2023-06-22T09:14:59;27.20;59.60
16074;DHT22;8141;52.664;5.074;2023-06-22T09:17:27;27.20;59.50
16074;DHT22;8141;52.664;5.074;2023-06-22T09:19:53;27.30;59.70
16074;DHT22;8141;52.664;5.074;2023-06-22T09:22:20;27.40;59.60
16074;DHT22;8141;52.664;5.074;2023-06-22T09:24:46;27.30;59.10
16074;DHT22;8141;52.664;5.074;2023-06-22T09:27:13;27.30;59.40
16074;DHT22;8141;52.664;5.074;2023-06-22T09:29:38;27.40;59.70
16074;DHT22;8141;52.664;5.074;2023-06-22T09:32:05;27.40;59.50
16074;DHT22;8141;52.664;5.074;2023-06-22T09:34:32;27.40;59.60
16074;DHT22;8141;52.664;5.074;2023-06-22T09:36:58;27.40;59.80
16074;DHT22;8141;52.664;5.074;2023-06-22T09:39:26;27.30;59.70
16074;DHT22;8141;52.664;5.074;2023-06-22T09:41:51;27.40;59.40
16074;DHT22;8141;52.664;5.074;2023-06-22T09:44:17;27.40;59.10
16074;DHT22;8141;52.664;5.074;2023-06-22T09:46:43;27.40;58.90
16074;DHT22;8141;52.664;5.074;2023-06-22T09:49:09;27.40;58.80
16074;DHT22;8141;52.664;5.074;2023-06-22T09:51:34;27.40;58.70
16074;DHT22;8141;52.664;5.074;2023-06-22T09:54:00;27.40;58.70
16074;DHT22;8141;52.664;5.074;2023-06-22T09:56:26;27.40;58.50
16074;DHT22;8141;52.664;5.074;2023-06-22T09:58:53;27.40;58.50
16074;DHT22;8141;52.664;5.074;2023-06-22T10:01:19;27.40;58.50
16074;DHT22;8141;52.664;5.074;2023-06-22T10:03:46;27.50;58.50
16074;DHT22;8141;52.664;5.074;2023-06-22T10:06:13;27.50;58.50
16074;DHT22;8141;52.664;5.074;2023-06-22T10:08:39;27.50;58.50
16074;DHT22;8141;52.664;5.074;2023-06-22T10:11:06;27.40;58.40
16074;DHT22;8141;52.664;5.074;2023-06-22T10:13:31;27.50;58.50
16074;DHT22;8141;52.664;5.074;2023-06-22T10:15:57;27.50;58.40
16074;DHT22;8141;52.664;5.074;2023-06-22T10:18:23;27.50;58.30
16074;DHT22;8141;52.664;5.074;2023-06-22T10:20:50;27.50;58.20
16074;DHT22;8141;52.664;5.074;2023-06-22T10:23:20;27.50;58.20
16074;DHT22;8141;52.664;5.074;2023-06-22T10:25:46;27.50;58.10
16074;DHT22;8141;52.664;5.074;2023-06-22T10:28:13;27.50;58.10
16074;DHT22;8141;52.664;5.074;2023-06-22T10:30:40;27.50;58.20
16074;DHT22;8141;52.664;5.074;2023-06-22T10:33:10;27.50;58.20
16074;DHT22;8141;52.664;5.074;2023-06-22T10:35:36;27.50;58.20
16074;DHT22;8141;52.664;5.074;2023-06-22T10:38:05;27.50;58.30
16074;DHT22;8141;52.664;5.074;2023-06-22T10:40:32;27.50;58.40
16074;DHT22;8141;52.664;5.074;2023-06-22T10:42:57;27.50;58.30
16074;DHT22;8141;52.664;5.074;2023-06-22T10:45:25;27.50;58.30
16074;DHT22;8141;52.664;5.074;2023-06-22T10:47:52;27.50;58.30
16074;DHT22;8141;52.664;5.074;2023-06-22T10:50:18;27.50;58.30
16074;DHT22;8141;52.664;5.074;2023-06-22T10:52:45;27.50;58.40
16074;DHT22;8141;52.664;5.074;2023-06-22T10:55:11;27.50;58.30
16074;DHT22;8141;52.664;5.074;2023-06-22T10:57:37;27.50;58.40
16074;DHT22;8141;52.664;5.074;2023-06-22T11:00:07;27.50;58.50
16074;DHT22;8141;52.664;5.074;2023-06-22T11:02:34;27.50;58.60
16074;DHT22;8141;52.664;5.074;2023-06-22T11:05:00;27.50;58.60
16074;DHT22;8141;52.664;5.074;2023-06-22T11:07:26;27.50;58.60
16074;DHT22;8141;52.664;5.074;2023-06-22T11:09:55;27.50;58.50
16074;DHT22;8141;52.664;5.074;2023-06-22T11:12:22;27.50;58.70
16074;DHT22;8141;52.664;5.074;2023-06-22T11:14:49;27.50;58.30
16074;DHT22;8141;52.664;5.074;2023-06-22T11:17:18;27.50;58.40
16074;DHT22;8141;52.664;5.074;2023-06-22T11:19:44;27.50;58.50
16074;DHT22;8141;52.664;5.074;2023-06-22T11:22:10;27.50;58.50
16074;DHT22;8141;52.664;5.074;2023-06-22T11:24:36;27.50;58.50
16074;DHT22;8141;52.664;5.074;2023-06-22T11:27:03;27.50;58.40
16074;DHT22;8141;52.664;5.074;2023-06-22T11:29:31;27.50;58.30
16074;DHT22;8141;52.664;5.074;2023-06-22T11:31:58;27.50;58.50
16074;DHT22;8141;52.664;5.074;2023-06-22T11:34:24;27.50;58.40
16074;DHT22;8141;52.664;5.074;2023-06-22T11:36:50;27.50;58.40
16074;DHT22;8141;52.664;5.074;2023-06-22T11:39:15;27.50;58.50
16074;DHT22;8141;52.664;5.074;2023-06-22T11:41:41;27.50;58.30
16074;DHT22;8141;52.664;5.074;2023-06-22T11:44:07;27.50;58.20
16074;DHT22;8141;52.664;5.074;2023-06-22T11:46:33;27.50;58.10
16074;DHT22;8141;52.664;5.074;2023-06-22T11:49:00;27.50;58.10
16074;DHT22;8141;52.664;5.074;2023-06-22T11:51:26;27.50;57.90
16074;DHT22;8141;52.664;5.074;2023-06-22T11:53:51;27.40;57.80
16074;DHT22;8141;52.664;5.074;2023-06-22T11:56:17;27.50;57.70
16074;DHT22;8141;52.664;5.074;2023-06-22T11:58:46;27.40;57.70
16074;DHT22;8141;52.664;5.074;2023-06-22T12:01:12;27.40;57.40
16074;DHT22;8141;52.664;5.074;2023-06-22T12:03:40;27.40;57.30
16074;DHT22;8141;52.664;5.074;2023-06-22T12:06:06;27.40;57.00
16074;DHT22;8141;52.664;5.074;2023-06-22T12:08:32;27.40;57.00
16074;DHT22;8141;52.664;5.074;2023-06-22T12:10:59;27.40;56.60
16074;DHT22;8141;52.664;5.074;2023-06-22T12:13:25;27.40;56.70
16074;DHT22;8141;52.664;5.074;2023-06-22T12:15:50;27.30;56.50
16074;DHT22;8141;52.664;5.074;2023-06-22T12:18:17;27.40;56.40
16074;DHT22;8141;52.664;5.074;2023-06-22T12:20:46;27.40;56.50
16074;DHT22;8141;52.664;5.074;2023-06-22T12:23:12;27.40;56.30
16074;DHT22;8141;52.664;5.074;2023-06-22T12:25:39;27.40;56.40
16074;DHT22;8141;52.664;5.074;2023-06-22T12:28:04;27.30;56.20
16074;DHT22;8141;52.664;5.074;2023-06-22T12:30:32;27.30;55.90
16074;DHT22;8141;52.664;5.074;2023-06-22T12:32:58;27.30;56.10
16074;DHT22;8141;52.664;5.074;2023-06-22T12:35:24;27.30;56.00
16074;DHT22;8141;52.664;5.074;2023-06-22T12:37:50;27.30;55.80
16074;DHT22;8141;52.664;5.074;2023-06-22T12:40:15;27.30;55.80
16074;DHT22;8141;52.664;5.074;2023-06-22T12:42:41;27.30;55.90
16074;DHT22;8141;52.664;5.074;2023-06-22T12:45:08;27.30;55.50
16074;DHT22;8141;52.664;5.074;2023-06-22T12:47:35;27.30;55.70
16074;DHT22;8141;52.664;5.074;2023-06-22T12:50:00;27.30;55.80
16074;DHT22;8141;52.664;5.074;2023-06-22T12:52:26;27.20;56.10
16074;DHT22;8141;52.664;5.074;2023-06-22T12:54:52;27.20;56.20
16074;DHT22;8141;52.664;5.074;2023-06-22T12:57:19;27.20;56.40
16074;DHT22;8141;52.664;5.074;2023-06-22T12:59:45;27.20;56.80
16074;DHT22;8141;52.664;5.074;2023-06-22T13:02:11;27.20;57.10
16074;DHT22;8141;52.664;5.074;2023-06-22T13:04:37;27.30;57.70
16074;DHT22;8141;52.664;5.074;2023-06-22T13:07:03;27.30;57.50
16074;DHT22;8141;52.664;5.074;2023-06-22T13:09:29;27.30;57.50
16074;DHT22;8141;52.664;5.074;2023-06-22T13:11:55;27.30;57.50
16074;DHT22;8141;52.664;5.074;2023-06-22T13:14:21;27.30;57.60
16074;DHT22;8141;52.664;5.074;2023-06-22T13:16:46;27.30;57.60
16074;DHT22;8141;52.664;5.074;2023-06-22T13:19:12;27.30;57.50
16074;DHT22;8141;52.664;5.074;2023-06-22T13:21:38;27.30;57.50
16074;DHT22;8141;52.664;5.074;2023-06-22T13:24:04;27.30;57.50
16074;DHT22;8141;52.664;5.074;2023-06-22T13:26:31;27.30;57.50
16074;DHT22;8141;52.664;5.074;2023-06-22T13:28:57;27.30;57.40
16074;DHT22;8141;52.664;5.074;2023-06-22T13:31:23;27.30;57.70
16074;DHT22;8141;52.664;5.074;2023-06-22T13:33:50;27.30;57.60
16074;DHT22;8141;52.664;5.074;2023-06-22T13:36:18;27.30;57.70
16074;DHT22;8141;52.664;5.074;2023-06-22T13:38:44;27.30;57.70
16074;DHT22;8141;52.664;5.074;2023-06-22T13:41:10;27.30;57.60
16074;DHT22;8141;52.664;5.074;2023-06-22T13:43:35;27.30;57.50
16074;DHT22;8141;52.664;5.074;2023-06-22T13:46:03;27.30;57.60
16074;DHT22;8141;52.664;5.074;2023-06-22T13:48:28;27.30;57.60
16074;DHT22;8141;52.664;5.074;2023-06-22T13:50:54;27.30;57.60
16074;DHT22;8141;52.664;5.074;2023-06-22T13:53:20;27.20;57.60
16074;DHT22;8141;52.664;5.074;2023-06-22T13:55:46;27.20;57.50
16074;DHT22;8141;52.664;5.074;2023-06-22T13:58:13;27.20;57.60
16074;DHT22;8141;52.664;5.074;2023-06-22T14:00:40;27.20;57.70
16074;DHT22;8141;52.664;5.074;2023-06-22T14:03:06;27.30;57.80
16074;DHT22;8141;52.664;5.074;2023-06-22T14:05:32;27.20;57.90
16074;DHT22;8141;52.664;5.074;2023-06-22T14:07:58;27.20;57.90
16074;DHT22;8141;52.664;5.074;2023-06-22T14:10:23;27.20;57.90
16074;DHT22;8141;52.664;5.074;2023-06-22T14:12:49;27.20;58.10
16074;DHT22;8141;52.664;5.074;2023-06-22T14:15:15;27.20;58.10
16074;DHT22;8141;52.664;5.074;2023-06-22T14:17:41;27.20;58.20
16074;DHT22;8141;52.664;5.074;2023-06-22T14:20:07;27.20;58.20
16074;DHT22;8141;52.664;5.074;2023-06-22T14:22:34;27.20;58.10
16074;DHT22;8141;52.664;5.074;2023-06-22T14:25:00;27.20;58.10
16074;DHT22;8141;52.664;5.074;2023-06-22T14:27:27;27.20;58.30
16074;DHT22;8141;52.664;5.074;2023-06-22T14:29:52;27.20;58.30
16074;DHT22;8141;52.664;5.074;2023-06-22T14:32:18;27.20;58.30
16074;DHT22;8141;52.664;5.074;2023-06-22T14:34:44;27.20;58.50
16074;DHT22;8141;52.664;5.074;2023-06-22T14:37:10;27.20;58.50
16074;DHT22;8141;52.664;5.074;2023-06-22T14:39:38;27.20;58.70
16074;DHT22;8141;52.664;5.074;2023-06-22T14:42:05;27.10;58.70
16074;DHT22;8141;52.664;5.074;2023-06-22T14:44:32;27.20;58.90
16074;DHT22;8141;52.664;5.074;2023-06-22T14:46:58;27.10;59.00
16074;DHT22;8141;52.664;5.074;2023-06-22T14:49:24;27.10;59.00
16074;DHT22;8141;52.664;5.074;2023-06-22T14:51:50;27.10;59.10
16074;DHT22;8141;52.664;5.074;2023-06-22T14:54:16;27.00;59.10
16074;DHT22;8141;52.664;5.074;2023-06-22T14:56:41;27.00;59.00
16074;DHT22;8141;52.664;5.074;2023-06-22T14:59:10;27.00;59.10
16074;DHT22;8141;52.664;5.074;2023-06-22T15:01:36;27.00;59.10
16074;DHT22;8141;52.664;5.074;2023-06-22T15:04:02;27.00;59.00
16074;DHT22;8141;52.664;5.074;2023-06-22T15:06:28;26.90;58.80
16074;DHT22;8141;52.664;5.074;2023-06-22T15:08:54;26.90;58.60
16074;DHT22;8141;52.664;5.074;2023-06-22T15:11:20;26.90;58.50
16074;DHT22;8141;52.664;5.074;2023-06-22T15:13:45;26.90;58.50
16074;DHT22;8141;52.664;5.074;2023-06-22T15:16:11;26.90;58.60
16074;DHT22;8141;52.664;5.074;2023-06-22T15:18:37;26.90;58.40
16074;DHT22;8141;52.664;5.074;2023-06-22T15:21:06;26.80;57.80
16074;DHT22;8141;52.664;5.074;2023-06-22T15:23:33;26.80;57.40
16074;DHT22;8141;52.664;5.074;2023-06-22T15:26:04;26.80;56.90
16074;DHT22;8141;52.664;5.074;2023-06-22T15:28:49;26.80;57.20
16074;DHT22;8141;52.664;5.074;2023-06-22T15:31:15;26.70;57.00
16074;DHT22;8141;52.664;5.074;2023-06-22T15:33:41;26.70;57.90
16074;DHT22;8141;52.664;5.074;2023-06-22T15:36:06;26.70;57.30
16074;DHT22;8141;52.664;5.074;2023-06-22T15:38:33;26.60;56.40
16074;DHT22;8141;52.664;5.074;2023-06-22T15:40:59;26.60;56.70
16074;DHT22;8141;52.664;5.074;2023-06-22T15:43:27;26.60;56.50
16074;DHT22;8141;52.664;5.074;2023-06-22T15:45:54;26.60;56.40
16074;DHT22;8141;52.664;5.074;2023-06-22T15:48:21;26.50;56.20
16074;DHT22;8141;52.664;5.074;2023-06-22T15:50:47;26.50;56.10
16074;DHT22;8141;52.664;5.074;2023-06-22T15:53:14;26.50;56.00